sensor_id;sensor_type;location;lat;lon;timestamp;pressure;altitude;pressure_sealevel;temperature;humidity
14800;BME280;7491;57.750;11.970;2023-04-01T00:02:07;76811.97;;;-142.11;100.00
14800;BME280;7491;57.750;11.970;2023-04-01T00:04:33;76828.28;;;-142.11;100.00
14800;BME280;7491;57.750;11.970;2023-04-01T00:07:01;76824.22;;;-142.11;100.00
14800;BME280;7491;57.750;11.970;2023-04-01T00:09:27;76828.28;;;-142.11;100.00
14800;BME280;7491;57.750;11.970;2023-04-01T00:11:54;76838.47;;;-142.11;100.00
14800;BME280;7491;57.750;11.970;2023-04-01T00:14:21;76844.59;;;-142.11;100.00
14800;BME280;7491;57.750;11.970;2023-04-01T00:16:48;76842.56;;;-142.11;100.00
14800;BME280;7491;57.750;11.970;2023-04-01T00:19:16;76844.59;;;-142.11;100.00
14800;BME280;7491;57.750;11.970;2023-04-01T00:21:43;76881.28;;;-142.11;100.00
14800;BME280;7491;57.750;11.970;2023-04-01T00:24:09;76862.94;;;-142.11;100.00
14800;BME280;7491;57.750;11.970;2023-04-01T00:26:36;76867.03;;;-142.11;100.00
14800;BME280;7491;57.750;11.970;2023-04-01T00:29:03;76873.13;;;-142.11;100.00
14800;BME280;7491;57.750;11.970;2023-04-01T00:31:30;76897.59;;;-142.11;100.00
14800;BME280;7491;57.750;11.970;2023-04-01T00:33:57;76901.69;;;-142.11;100.00
14800;BME280;7491;57.750;11.970;2023-04-01T00:36:25;76901.69;;;-142.11;100.00
14800;BME280;7491;57.750;11.970;2023-04-01T00:38:52;76899.66;;;-142.11;100.00
14800;BME280;7491;57.750;11.970;2023-04-01T00:41:19;76901.69;;;-142.11;100.00
14800;BME280;7491;57.750;11.970;2023-04-01T00:43:48;76903.72;;;-142.11;100.00
14800;BME280;7491;57.750;11.970;2023-04-01T00:46:16;76911.88;;;-142.11;100.00
14800;BME280;7491;57.750;11.970;2023-04-01T00:48:45;76928.19;;;-142.11;100.00
14800;BME280;7491;57.750;11.970;2023-04-01T00:51:16;76948.56;;;-142.11;100.00
14800;BME280;7491;57.750;11.970;2023-04-01T00:53:48;76940.44;;;-142.11;100.00
14800;BME280;7491;57.750;11.970;2023-04-01T00:56:19;76962.84;;;-142.11;100.00
14800;BME280;7491;57.750;11.970;2023-04-01T00:58:51;76966.94;;;-142.11;100.00
14800;BME280;7491;57.750;11.970;2023-04-01T01:01:21;76975.09;;;-142.11;100.00
14800;BME280;7491;57.750;11.970;2023-04-01T01:03:49;76979.16;;;-142.11;100.00
14800;BME280;7491;57.750;11.970;2023-04-01T01:06:30;76981.22;;;-142.11;100.00
14800;BME280;7491;57.750;11.970;2023-04-01T01:09:12;77001.59;;;-142.11;100.00
14800;BME280;7491;57.750;11.970;2023-04-01T01:11:42;77007.72;;;-142.11;100.00
14800;BME280;7491;57.750;11.970;2023-04-01T01:14:21;77009.75;;;-142.11;100.00
14800;BME280;7491;57.750;11.970;2023-04-01T01:16:53;77024.03;;;-142.11;100.00
14800;BME280;7491;57.750;11.970;2023-04-01T01:19:57;77021.97;;;-142.11;100.00
14800;BME280;7491;57.750;11.970;2023-04-01T01:22:38;77036.25;;;-142.11;100.00
14800;BME280;7491;57.750;11.970;2023-04-01T01:25:17;77040.34;;;-142.11;100.00
14800;BME280;7491;57.750;11.970;2023-04-01T01:27:58;77044.41;;;-142.11;100.00
14800;BME280;7491;57.750;11.970;2023-04-01T01:30:42;77056.66;;;-142.11;100.00
14800;BME280;7491;57.750;11.970;2023-04-01T01:33:20;77068.88;;;-142.11;100.00
14800;BME280;7491;57.750;11.970;2023-04-01T01:35:52;77075.00;;;-142.11;100.00
14800;BME280;7491;57.750;11.970;2023-04-01T01:38:23;77068.88;;;-142.11;100.00
14800;BME280;7491;57.750;11.970;2023-04-01T01:40:56;77085.19;;;-142.11;100.00
14800;BME280;7491;57.750;11.970;2023-04-01T01:43:25;77079.06;;;-142.11;100.00
14800;BME280;7491;57.750;11.970;2023-04-01T01:45:55;77103.53;;;-142.11;100.00
14800;BME280;7491;57.750;11.970;2023-04-01T01:48:25;77093.34;;;-142.11;100.00
14800;BME280;7491;57.750;11.970;2023-04-01T01:50:54;77091.31;;;-142.11;100.00
14800;BME280;7491;57.750;11.970;2023-04-01T01:53:21;77101.50;;;-142.11;100.00
14800;BME280;7491;57.750;11.970;2023-04-01T01:55:47;77121.91;;;-142.11;100.00
14800;BME280;7491;57.750;11.970;2023-04-01T01:58:18;77115.78;;;-142.11;100.00
14800;BME280;7491;57.750;11.970;2023-04-01T02:00:48;77115.78;;;-142.11;100.00
14800;BME280;7491;57.750;11.970;2023-04-01T02:03:17;77119.84;;;-142.11;100.00
14800;BME280;7491;57.750;11.970;2023-04-01T02:05:47;77117.81;;;-142.11;100.00
14800;BME280;7491;57.750;11.970;2023-04-01T02:08:20;77136.16;;;-142.11;100.00
14800;BME280;7491;57.750;11.970;2023-04-01T02:10:55;77142.28;;;-142.11;100.00
14800;BME280;7491;57.750;11.970;2023-04-01T02:13:26;77136.16;;;-142.11;100.00
14800;BME280;7491;57.750;11.970;2023-04-01T02:16:00;77140.25;;;-142.11;100.00
14800;BME280;7491;57.750;11.970;2023-04-01T02:18:30;77144.31;;;-142.11;100.00
14800;BME280;7491;57.750;11.970;2023-04-01T02:20:59;77156.56;;;-142.11;100.00
14800;BME280;7491;57.750;11.970;2023-04-01T02:23:28;77154.53;;;-142.11;100.00
14800;BME280;7491;57.750;11.970;2023-04-01T02:25:55;77156.56;;;-142.11;100.00
14800;BME280;7491;57.750;11.970;2023-04-01T02:28:23;77166.75;;;-142.11;100.00
14800;BME280;7491;57.750;11.970;2023-04-01T02:30:51;77166.75;;;-142.11;100.00
14800;BME280;7491;57.750;11.970;2023-04-01T02:33:19;77162.69;;;-142.11;100.00
14800;BME280;7491;57.750;11.970;2023-04-01T02:35:46;77179.00;;;-142.11;100.00
14800;BME280;7491;57.750;11.970;2023-04-01T02:38:13;77181.03;;;-142.11;100.00
14800;BME280;7491;57.750;11.970;2023-04-01T02:40:44;77176.94;;;-142.11;100.00
14800;BME280;7491;57.750;11.970;2023-04-01T02:43:12;77193.25;;;-142.11;100.00
14800;BME280;7491;57.750;11.970;2023-04-01T02:45:38;77195.31;;;-142.11;100.00
14800;BME280;7491;57.750;11.970;2023-04-01T02:48:05;77185.09;;;-142.11;100.00
14800;BME280;7491;57.750;11.970;2023-04-01T02:50:32;77199.38;;;-142.11;100.00
14800;BME280;7491;57.750;11.970;2023-04-01T02:52:59;77203.47;;;-142.11;100.00
14800;BME280;7491;57.750;11.970;2023-04-01T02:55:26;77205.50;;;-142.11;100.00
14800;BME280;7491;57.750;11.970;2023-04-01T02:57:54;77215.69;;;-142.11;100.00
14800;BME280;7491;57.750;11.970;2023-04-01T03:00:21;77213.66;;;-142.11;100.00
14800;BME280;7491;57.750;11.970;2023-04-01T03:02:48;77207.53;;;-142.11;100.00
14800;BME280;7491;57.750;11.970;2023-04-01T03:05:14;77223.84;;;-142.11;100.00
14800;BME280;7491;57.750;11.970;2023-04-01T03:07:41;77240.16;;;-142.11;100.00
14800;BME280;7491;57.750;11.970;2023-04-01T03:10:08;77240.16;;;-142.11;100.00
14800;BME280;7491;57.750;11.970;2023-04-01T03:12:35;77240.16;;;-142.11;100.00
14800;BME280;7491;57.750;11.970;2023-04-01T03:15:05;77248.31;;;-142.11;100.00
14800;BME280;7491;57.750;11.970;2023-04-01T03:17:31;77242.19;;;-142.11;100.00
14800;BME280;7491;57.750;11.970;2023-04-01T03:19:58;77242.19;;;-142.11;100.00
14800;BME280;7491;57.750;11.970;2023-04-01T03:22:25;77236.09;;;-142.11;100.00
14800;BME280;7491;57.750;11.970;2023-04-01T03:24:51;77256.47;;;-142.11;100.00
14800;BME280;7491;57.750;11.970;2023-04-01T03:27:18;77258.53;;;-142.11;100.00
14800;BME280;7491;57.750;11.970;2023-04-01T03:29:45;77272.78;;;-142.11;100.00
14800;BME280;7491;57.750;11.970;2023-04-01T03:32:13;77262.59;;;-142.11;100.00
14800;BME280;7491;57.750;11.970;2023-04-01T03:34:40;77262.59;;;-142.11;100.00
14800;BME280;7491;57.750;11.970;2023-04-01T03:37:06;77256.47;;;-142.11;100.00
14800;BME280;7491;57.750;11.970;2023-04-01T03:39:33;77270.75;;;-142.11;100.00
14800;BME280;7491;57.750;11.970;2023-04-01T03:42:00;77283.00;;;-142.11;100.00
14800;BME280;7491;57.750;11.970;2023-04-01T03:44:30;77285.03;;;-142.11;100.00
14800;BME280;7491;57.750;11.970;2023-04-01T03:46:57;77270.75;;;-142.11;100.00
14800;BME280;7491;57.750;11.970;2023-04-01T03:49:25;77283.00;;;-142.11;100.00
14800;BME280;7491;57.750;11.970;2023-04-01T03:51:52;77276.88;;;-142.11;100.00
14800;BME280;7491;57.750;11.970;2023-04-01T03:54:19;77287.06;;;-142.11;100.00
14800;BME280;7491;57.750;11.970;2023-04-01T03:56:46;77291.16;;;-142.11;100.00
14800;BME280;7491;57.750;11.970;2023-04-01T03:59:12;77293.19;;;-142.11;100.00
14800;BME280;7491;57.750;11.970;2023-04-01T04:01:39;77287.06;;;-142.11;100.00
14800;BME280;7491;57.750;11.970;2023-04-01T04:04:06;77301.34;;;-142.11;100.00
14800;BME280;7491;57.750;11.970;2023-04-01T04:06:34;77313.56;;;-142.11;100.00
14800;BME280;7491;57.750;11.970;2023-04-01T04:09:01;77313.56;;;-142.11;100.00
14800;BME280;7491;57.750;11.970;2023-04-01T04:11:30;77325.81;;;-142.11;100.00
14800;BME280;7491;57.750;11.970;2023-04-01T04:13:57;77325.81;;;-142.11;100.00
14800;BME280;7491;57.750;11.970;2023-04-01T04:16:23;77342.13;;;-142.11;100.00
14800;BME280;7491;57.750;11.970;2023-04-01T04:18:50;77329.88;;;-142.11;100.00
14800;BME280;7491;57.750;11.970;2023-04-01T04:21:17;77344.16;;;-142.11;100.00
14800;BME280;7491;57.750;11.970;2023-04-01T04:23:45;77340.09;;;-142.11;100.00
14800;BME280;7491;57.750;11.970;2023-04-01T04:26:14;77344.16;;;-142.11;100.00
14800;BME280;7491;57.750;11.970;2023-04-01T04:28:41;77356.41;;;-142.11;100.00
14800;BME280;7491;57.750;11.970;2023-04-01T04:31:08;77362.50;;;-142.11;100.00
14800;BME280;7491;57.750;11.970;2023-04-01T04:33:34;77360.47;;;-142.11;100.00
14800;BME280;7491;57.750;11.970;2023-04-01T04:36:02;77368.63;;;-142.11;100.00
14800;BME280;7491;57.750;11.970;2023-04-01T04:38:29;77376.78;;;-142.11;100.00
14800;BME280;7491;57.750;11.970;2023-04-01T04:40:57;77389.03;;;-142.11;100.00
14800;BME280;7491;57.750;11.970;2023-04-01T04:43:24;77389.03;;;-142.11;100.00
14800;BME280;7491;57.750;11.970;2023-04-01T04:45:51;77395.16;;;-142.11;100.00
14800;BME280;7491;57.750;11.970;2023-04-01T04:48:17;77391.06;;;-142.11;100.00
14800;BME280;7491;57.750;11.970;2023-04-01T04:50:46;77399.22;;;-142.11;100.00
14800;BME280;7491;57.750;11.970;2023-04-01T04:53:13;77399.22;;;-142.11;100.00
14800;BME280;7491;57.750;11.970;2023-04-01T04:55:43;77403.31;;;-142.11;100.00
14800;BME280;7491;57.750;11.970;2023-04-01T04:58:11;77395.16;;;-142.11;100.00
14800;BME280;7491;57.750;11.970;2023-04-01T05:00:37;77409.41;;;-142.11;100.00
14800;BME280;7491;57.750;11.970;2023-04-01T05:03:04;77409.41;;;-142.11;100.00
14800;BME280;7491;57.750;11.970;2023-04-01T05:05:31;77409.41;;;-142.11;100.00
14800;BME280;7491;57.750;11.970;2023-04-01T05:07:58;77405.34;;;-142.11;100.00
14800;BME280;7491;57.750;11.970;2023-04-01T05:10:24;77403.31;;;-142.11;100.00
14800;BME280;7491;57.750;11.970;2023-04-01T05:12:51;77405.34;;;-142.11;100.00
14800;BME280;7491;57.750;11.970;2023-04-01T05:15:19;77413.50;;;-142.11;100.00
14800;BME280;7491;57.750;11.970;2023-04-01T05:17:46;77419.63;;;-142.11;100.00
14800;BME280;7491;57.750;11.970;2023-04-01T05:20:13;77397.19;;;-142.11;100.00
14800;BME280;7491;57.750;11.970;2023-04-01T05:22:40;77401.25;;;-142.11;100.00
14800;BME280;7491;57.750;11.970;2023-04-01T05:25:07;77411.47;;;-142.11;100.00
14800;BME280;7491;57.750;11.970;2023-04-01T05:27:34;77403.31;;;-142.11;100.00
14800;BME280;7491;57.750;11.970;2023-04-01T05:30:01;77276.88;;;-142.11;100.00
14800;BME280;7491;57.750;11.970;2023-04-01T05:32:30;77268.72;;;-142.11;100.00
14800;BME280;7491;57.750;11.970;2023-04-01T05:34:57;77097.44;;;-142.11;100.00
14800;BME280;7491;57.750;11.970;2023-04-01T05:37:23;76909.84;;;-142.11;100.00
14800;BME280;7491;57.750;11.970;2023-04-01T05:39:50;76801.78;;;-142.11;98.86
14800;BME280;7491;57.750;11.970;2023-04-01T05:42:17;76689.63;;;-142.11;96.02
14800;BME280;7491;57.750;11.970;2023-04-01T05:44:43;76701.88;;;-142.11;94.18
14800;BME280;7491;57.750;11.970;2023-04-01T05:47:10;76646.81;;;-142.11;93.86
14800;BME280;7491;57.750;11.970;2023-04-01T05:49:38;76771.19;;;-142.11;93.99
14800;BME280;7491;57.750;11.970;2023-04-01T05:52:05;76826.25;;;-142.11;94.95
14800;BME280;7491;57.750;11.970;2023-04-01T05:54:32;76893.53;;;-142.11;96.10
14800;BME280;7491;57.750;11.970;2023-04-01T05:56:59;76909.84;;;-142.11;95.78
14800;BME280;7491;57.750;11.970;2023-04-01T05:59:28;76738.56;;;-142.11;94.38
14800;BME280;7491;57.750;11.970;2023-04-01T06:01:56;76801.78;;;-142.11;93.70
14800;BME280;7491;57.750;11.970;2023-04-01T06:04:23;76818.09;;;-142.11;94.81
14800;BME280;7491;57.750;11.970;2023-04-01T06:06:51;76915.97;;;-142.11;95.92
14800;BME280;7491;57.750;11.970;2023-04-01T06:09:21;76975.09;;;-142.11;97.18
14800;BME280;7491;57.750;11.970;2023-04-01T06:14:45;77085.19;;;-142.11;98.55
14800;BME280;7491;57.750;11.970;2023-04-01T06:17:26;77097.44;;;-142.11;99.39
14800;BME280;7491;57.750;11.970;2023-04-01T06:20:03;77103.53;;;-142.11;100.00
14800;BME280;7491;57.750;11.970;2023-04-01T06:22:53;77121.91;;;-142.11;99.96
14800;BME280;7491;57.750;11.970;2023-04-01T06:25:36;77097.44;;;-142.11;100.00
14800;BME280;7491;57.750;11.970;2023-04-01T06:31:33;77115.78;;;-142.11;99.14
14800;BME280;7491;57.750;11.970;2023-04-01T06:34:22;77119.84;;;-142.11;98.93
14800;BME280;7491;57.750;11.970;2023-04-01T06:37:08;77117.81;;;-142.11;98.77
14800;BME280;7491;57.750;11.970;2023-04-01T06:39:51;77119.84;;;-142.11;98.54
14800;BME280;7491;57.750;11.970;2023-04-01T06:42:45;77105.59;;;-142.11;97.60
14800;BME280;7491;57.750;11.970;2023-04-01T06:45:22;77105.59;;;-142.11;97.58
14800;BME280;7491;57.750;11.970;2023-04-01T06:48:02;77087.22;;;-142.11;96.83
14800;BME280;7491;57.750;11.970;2023-04-01T06:50:49;77075.00;;;-142.11;96.21
14800;BME280;7491;57.750;11.970;2023-04-01T06:53:22;77064.81;;;-142.11;96.10
14800;BME280;7491;57.750;11.970;2023-04-01T06:55:53;77056.66;;;-142.11;95.18
14800;BME280;7491;57.750;11.970;2023-04-01T06:58:26;77054.59;;;-142.11;95.36
14800;BME280;7491;57.750;11.970;2023-04-01T07:00:56;77054.59;;;-142.11;94.86
14800;BME280;7491;57.750;11.970;2023-04-01T07:03:30;77048.50;;;-142.11;94.76
14800;BME280;7491;57.750;11.970;2023-04-01T07:06:03;77040.34;;;-142.11;94.76
14800;BME280;7491;57.750;11.970;2023-04-01T07:08:33;77019.94;;;-142.11;94.53
14800;BME280;7491;57.750;11.970;2023-04-01T07:11:06;77001.59;;;-142.11;95.21
14800;BME280;7491;57.750;11.970;2023-04-01T07:13:39;77017.91;;;-142.11;94.33
14800;BME280;7491;57.750;11.970;2023-04-01T07:16:12;76987.31;;;-142.11;94.79
14800;BME280;7491;57.750;11.970;2023-04-01T07:18:45;76985.28;;;-142.11;93.03
14800;BME280;7491;57.750;11.970;2023-04-01T07:21:22;76979.16;;;-142.11;93.47
14800;BME280;7491;57.750;11.970;2023-04-01T07:23:51;76962.84;;;-142.11;92.85
14800;BME280;7491;57.750;11.970;2023-04-01T07:26:21;76946.53;;;-142.11;92.81
14800;BME280;7491;57.750;11.970;2023-04-01T07:28:51;76926.16;;;-142.11;93.62
14800;BME280;7491;57.750;11.970;2023-04-01T07:31:32;76954.69;;;-142.11;92.63
14800;BME280;7491;57.750;11.970;2023-04-01T07:34:11;76966.94;;;-142.11;92.45
14800;BME280;7491;57.750;11.970;2023-04-01T07:36:45;76920.03;;;-142.11;93.01
14800;BME280;7491;57.750;11.970;2023-04-01T07:39:23;76930.22;;;-142.11;91.68
14800;BME280;7491;57.750;11.970;2023-04-01T07:41:58;76938.38;;;-142.11;92.13
14800;BME280;7491;57.750;11.970;2023-04-01T07:44:33;76913.91;;;-142.11;91.83
14800;BME280;7491;57.750;11.970;2023-04-01T07:47:20;76901.69;;;-142.11;91.71
14800;BME280;7491;57.750;11.970;2023-04-01T07:49:58;76911.88;;;-142.11;91.20
14800;BME280;7491;57.750;11.970;2023-04-01T07:52:35;76901.69;;;-142.11;91.23
14800;BME280;7491;57.750;11.970;2023-04-01T07:55:13;76871.09;;;-142.11;93.19
14800;BME280;7491;57.750;11.970;2023-04-01T07:57:48;76864.97;;;-142.11;91.01
14800;BME280;7491;57.750;11.970;2023-04-01T08:00:21;76883.34;;;-142.11;89.57
14800;BME280;7491;57.750;11.970;2023-04-01T08:02:59;76862.94;;;-142.11;89.92
14800;BME280;7491;57.750;11.970;2023-04-01T08:05:37;76879.25;;;-142.11;89.37
14800;BME280;7491;57.750;11.970;2023-04-01T08:08:12;76877.22;;;-142.11;87.81
14800;BME280;7491;57.750;11.970;2023-04-01T08:10:48;76862.94;;;-142.11;89.84
14800;BME280;7491;57.750;11.970;2023-04-01T08:13:25;76844.59;;;-142.11;89.65
14800;BME280;7491;57.750;11.970;2023-04-01T08:16:04;76828.28;;;-142.11;89.74
14800;BME280;7491;57.750;11.970;2023-04-01T08:18:40;76836.44;;;-142.11;90.68
14800;BME280;7491;57.750;11.970;2023-04-01T08:21:21;76860.91;;;-142.11;89.31
14800;BME280;7491;57.750;11.970;2023-04-01T08:23:52;76830.31;;;-142.11;91.10
14800;BME280;7491;57.750;11.970;2023-04-01T08:26:28;76811.97;;;-142.11;89.46
14800;BME280;7491;57.750;11.970;2023-04-01T08:29:01;76824.22;;;-142.11;89.34
14800;BME280;7491;57.750;11.970;2023-04-01T08:31:33;76795.66;;;-142.11;90.85
14800;BME280;7491;57.750;11.970;2023-04-01T08:34:04;76799.75;;;-142.11;88.37
14800;BME280;7491;57.750;11.970;2023-04-01T08:36:37;76781.38;;;-142.11;91.02
14800;BME280;7491;57.750;11.970;2023-04-01T08:39:13;76820.13;;;-142.11;88.80
14800;BME280;7491;57.750;11.970;2023-04-01T08:41:59;76818.09;;;-142.11;88.52
14800;BME280;7491;57.750;11.970;2023-04-01T08:44:59;76824.22;;;-142.11;87.63
14800;BME280;7491;57.750;11.970;2023-04-01T08:47:50;76816.06;;;-142.11;88.19
14800;BME280;7491;57.750;11.970;2023-04-01T08:50:50;76811.97;;;-142.11;88.46
14800;BME280;7491;57.750;11.970;2023-04-01T08:53:36;76797.69;;;-142.11;87.01
14800;BME280;7491;57.750;11.970;2023-04-01T08:56:12;76797.69;;;-142.11;87.21
14800;BME280;7491;57.750;11.970;2023-04-01T08:59:04;76791.59;;;-142.11;88.19
14800;BME280;7491;57.750;11.970;2023-04-01T09:01:58;76818.09;;;-142.11;87.28
14800;BME280;7491;57.750;11.970;2023-04-01T09:04:42;76791.59;;;-142.11;88.86
14800;BME280;7491;57.750;11.970;2023-04-01T09:07:28;76801.78;;;-142.11;86.99
14800;BME280;7491;57.750;11.970;2023-04-01T09:10:45;76777.31;;;-142.11;87.31
14800;BME280;7491;57.750;11.970;2023-04-01T09:16:24;76809.94;;;-142.11;87.28
14800;BME280;7491;57.750;11.970;2023-04-01T09:19:14;76805.84;;;-142.11;85.96
14800;BME280;7491;57.750;11.970;2023-04-01T09:22:11;76777.31;;;-142.11;87.55
14800;BME280;7491;57.750;11.970;2023-04-01T09:25:06;76773.22;;;-142.11;86.44
14800;BME280;7491;57.750;11.970;2023-04-01T09:27:44;76765.06;;;-142.11;86.65
14800;BME280;7491;57.750;11.970;2023-04-01T09:30:32;76763.03;;;-142.11;86.13
14800;BME280;7491;57.750;11.970;2023-04-01T09:36:25;76754.88;;;-142.11;85.97
14800;BME280;7491;57.750;11.970;2023-04-01T09:38:57;76746.72;;;-142.11;85.81
14800;BME280;7491;57.750;11.970;2023-04-01T09:41:29;76742.66;;;-142.11;86.21
14800;BME280;7491;57.750;11.970;2023-04-01T09:44:15;76738.56;;;-142.11;87.39
14800;BME280;7491;57.750;11.970;2023-04-01T09:46:56;76708.00;;;-142.11;85.77
14800;BME280;7491;57.750;11.970;2023-04-01T09:49:42;76710.03;;;-142.11;85.66
14800;BME280;7491;57.750;11.970;2023-04-01T09:52:21;76703.91;;;-142.11;85.32
14800;BME280;7491;57.750;11.970;2023-04-01T09:55:04;76703.91;;;-142.11;86.17
14800;BME280;7491;57.750;11.970;2023-04-01T09:57:52;76712.06;;;-142.11;86.27
14800;BME280;7491;57.750;11.970;2023-04-01T10:00:43;76734.50;;;-142.11;84.70
14800;BME280;7491;57.750;11.970;2023-04-01T10:03:38;76718.19;;;-142.11;84.42
14800;BME280;7491;57.750;11.970;2023-04-01T10:06:58;76708.00;;;-142.11;84.72
14800;BME280;7491;57.750;11.970;2023-04-01T10:09:59;76716.16;;;-142.11;84.71
14800;BME280;7491;57.750;11.970;2023-04-01T10:16:34;76708.00;;;-142.11;85.79
14800;BME280;7491;57.750;11.970;2023-04-01T10:19:39;76708.00;;;-142.11;83.84
14800;BME280;7491;57.750;11.970;2023-04-01T10:22:28;76681.50;;;-142.11;85.02
14800;BME280;7491;57.750;11.970;2023-04-01T10:28:18;76699.84;;;-142.11;84.74
14800;BME280;7491;57.750;11.970;2023-04-01T10:31:14;76693.72;;;-142.11;85.12
14800;BME280;7491;57.750;11.970;2023-04-01T10:34:25;76669.25;;;-142.11;84.86
14800;BME280;7491;57.750;11.970;2023-04-01T10:36:58;76691.69;;;-142.11;84.87
14800;BME280;7491;57.750;11.970;2023-04-01T10:39:49;76685.56;;;-142.11;85.02
14800;BME280;7491;57.750;11.970;2023-04-01T10:42:43;76687.59;;;-142.11;85.68
14800;BME280;7491;57.750;11.970;2023-04-01T10:52:00;76665.19;;;-142.11;83.92
14800;BME280;7491;57.750;11.970;2023-04-01T10:54:44;76667.22;;;-142.11;84.93
14800;BME280;7491;57.750;11.970;2023-04-01T10:57:25;76661.09;;;-142.11;84.10
14800;BME280;7491;57.750;11.970;2023-04-01T11:00:18;76638.66;;;-142.11;85.29
14800;BME280;7491;57.750;11.970;2023-04-01T11:03:18;76622.34;;;-142.11;84.67
14800;BME280;7491;57.750;11.970;2023-04-01T11:09:21;76644.78;;;-142.11;83.73
14800;BME280;7491;57.750;11.970;2023-04-01T11:12:36;76626.44;;;-142.11;85.52
14800;BME280;7491;57.750;11.970;2023-04-01T11:15:37;76636.63;;;-142.11;85.03
14800;BME280;7491;57.750;11.970;2023-04-01T11:21:42;76612.16;;;-142.11;85.13
14800;BME280;7491;57.750;11.970;2023-04-01T11:24:35;76650.91;;;-142.11;83.33
14800;BME280;7491;57.750;11.970;2023-04-01T11:27:14;76626.44;;;-142.11;84.48
14800;BME280;7491;57.750;11.970;2023-04-01T11:30:14;76604.00;;;-142.11;84.40
14800;BME280;7491;57.750;11.970;2023-04-01T11:32:52;76608.09;;;-142.11;84.85
14800;BME280;7491;57.750;11.970;2023-04-01T11:35:34;76606.06;;;-142.11;85.35
14800;BME280;7491;57.750;11.970;2023-04-01T11:38:14;76614.22;;;-142.11;84.51
14800;BME280;7491;57.750;11.970;2023-04-01T11:40:52;76599.94;;;-142.11;84.95
14800;BME280;7491;57.750;11.970;2023-04-01T11:43:26;76612.16;;;-142.11;85.10
14800;BME280;7491;57.750;11.970;2023-04-01T11:46:02;76612.16;;;-142.11;84.96
14800;BME280;7491;57.750;11.970;2023-04-01T11:48:49;76610.13;;;-142.11;85.76
14800;BME280;7491;57.750;11.970;2023-04-01T11:51:47;76608.09;;;-142.11;85.62
14800;BME280;7491;57.750;11.970;2023-04-01T11:54:32;76608.09;;;-142.11;86.02
14800;BME280;7491;57.750;11.970;2023-04-01T11:57:13;76589.75;;;-142.11;85.57
14800;BME280;7491;57.750;11.970;2023-04-01T12:00:10;76577.50;;;-142.11;86.47
14800;BME280;7491;57.750;11.970;2023-04-01T12:02:50;76567.31;;;-142.11;86.62
14800;BME280;7491;57.750;11.970;2023-04-01T12:05:34;76555.09;;;-142.11;85.84
14800;BME280;7491;57.750;11.970;2023-04-01T12:08:12;76553.03;;;-142.11;85.73
14800;BME280;7491;57.750;11.970;2023-04-01T12:10:46;76567.31;;;-142.11;85.01
14800;BME280;7491;57.750;11.970;2023-04-01T12:13:28;76571.38;;;-142.11;86.21
14800;BME280;7491;57.750;11.970;2023-04-01T12:16:08;76559.16;;;-142.11;85.37
14800;BME280;7491;57.750;11.970;2023-04-01T12:18:42;76571.38;;;-142.11;85.93
14800;BME280;7491;57.750;11.970;2023-04-01T12:21:21;76522.47;;;-142.11;86.75
14800;BME280;7491;57.750;11.970;2023-04-01T12:24:03;76530.63;;;-142.11;85.78
14800;BME280;7491;57.750;11.970;2023-04-01T12:26:55;76524.50;;;-142.11;85.04
14800;BME280;7491;57.750;11.970;2023-04-01T12:29:47;76536.72;;;-142.11;85.16
14800;BME280;7491;57.750;11.970;2023-04-01T12:32:21;76534.69;;;-142.11;84.81
14800;BME280;7491;57.750;11.970;2023-04-01T12:35:00;76526.53;;;-142.11;85.20
14800;BME280;7491;57.750;11.970;2023-04-01T12:37:38;76536.72;;;-142.11;85.18
14800;BME280;7491;57.750;11.970;2023-04-01T12:43:14;76520.41;;;-142.11;85.33
14800;BME280;7491;57.750;11.970;2023-04-01T12:45:54;76538.78;;;-142.11;85.50
14800;BME280;7491;57.750;11.970;2023-04-01T12:48:52;76553.03;;;-142.11;84.07
14800;BME280;7491;57.750;11.970;2023-04-01T12:51:39;76555.09;;;-142.11;85.20
14800;BME280;7491;57.750;11.970;2023-04-01T12:57:14;76553.03;;;-142.11;84.78
14800;BME280;7491;57.750;11.970;2023-04-01T13:00:03;76565.28;;;-142.11;84.18
14800;BME280;7491;57.750;11.970;2023-04-01T13:02:52;76530.63;;;-142.11;83.91
14800;BME280;7491;57.750;11.970;2023-04-01T13:05:43;76506.16;;;-142.11;82.88
14800;BME280;7491;57.750;11.970;2023-04-01T13:08:27;76555.09;;;-142.11;81.59
14800;BME280;7491;57.750;11.970;2023-04-01T13:11:09;76559.16;;;-142.11;80.86
14800;BME280;7491;57.750;11.970;2023-04-01T13:14:11;76544.88;;;-142.11;81.97
14800;BME280;7491;57.750;11.970;2023-04-01T13:16:42;76575.47;;;-142.11;79.94
14800;BME280;7491;57.750;11.970;2023-04-01T13:19:20;76573.44;;;-142.11;81.04
14800;BME280;7491;57.750;11.970;2023-04-01T13:21:55;76561.19;;;-142.11;79.65
14800;BME280;7491;57.750;11.970;2023-04-01T13:24:46;76546.94;;;-142.11;81.13
14800;BME280;7491;57.750;11.970;2023-04-01T13:27:18;76563.25;;;-142.11;80.89
14800;BME280;7491;57.750;11.970;2023-04-01T13:29:59;76567.31;;;-142.11;80.15
14800;BME280;7491;57.750;11.970;2023-04-01T13:32:34;76555.09;;;-142.11;79.13
14800;BME280;7491;57.750;11.970;2023-04-01T13:35:13;76565.28;;;-142.11;79.21
14800;BME280;7491;57.750;11.970;2023-04-01T13:37:52;76565.28;;;-142.11;79.55
14800;BME280;7491;57.750;11.970;2023-04-01T13:40:33;76571.38;;;-142.11;79.03
14800;BME280;7491;57.750;11.970;2023-04-01T13:43:11;76569.34;;;-142.11;79.13
14800;BME280;7491;57.750;11.970;2023-04-01T13:45:55;76575.47;;;-142.11;79.61
14800;BME280;7491;57.750;11.970;2023-04-01T13:48:31;76575.47;;;-142.11;79.08
14800;BME280;7491;57.750;11.970;2023-04-01T13:54:21;76567.31;;;-142.11;79.94
14800;BME280;7491;57.750;11.970;2023-04-01T13:57:05;76563.25;;;-142.11;80.30
14800;BME280;7491;57.750;11.970;2023-04-01T13:59:51;76577.50;;;-142.11;80.48
14800;BME280;7491;57.750;11.970;2023-04-01T14:02:39;76573.44;;;-142.11;79.48